createdAt,value
2022-12-20T00:01:33.901Z,4.45
2022-12-20T00:04:03.883Z,5.63
2022-12-20T00:06:33.423Z,5.50
2022-12-20T00:09:03.888Z,4.70
2022-12-20T00:11:32.348Z,5.45
2022-12-20T00:13:59.854Z,5.10
2022-12-20T00:16:28.887Z,5.68
2022-12-20T00:19:02.523Z,5.07
2022-12-20T00:21:31.566Z,5.03
2022-12-20T00:23:59.512Z,4.97
2022-12-20T00:26:29.985Z,5.72
2022-12-20T00:28:57.911Z,5.13
2022-12-20T00:31:26.581Z,5.15
2022-12-20T00:33:56.036Z,4.68
2022-12-20T00:36:25.954Z,4.43
2022-12-20T00:38:55.808Z,5.32
2022-12-20T00:41:29.031Z,4.87
2022-12-20T00:43:56.469Z,4.65
2022-12-20T00:46:27.521Z,4.70
2022-12-20T00:48:55.727Z,4.72
2022-12-20T00:51:29.010Z,4.82
2022-12-20T00:53:56.803Z,4.55
2022-12-20T00:56:26.044Z,4.45
2022-12-20T00:58:59.074Z,4.78
2022-12-20T01:01:32.499Z,4.90
2022-12-20T01:04:01.262Z,4.40
2022-12-20T01:06:30.257Z,4.30
2022-12-20T01:08:58.353Z,4.80
2022-12-20T01:11:29.262Z,4.35
2022-12-20T01:13:59.998Z,4.30
2022-12-20T01:16:34.772Z,3.70
2022-12-20T01:19:05.930Z,3.72
2022-12-20T01:21:36.477Z,4.50
2022-12-20T01:24:04.693Z,3.40
2022-12-20T01:26:31.976Z,3.67
2022-12-20T01:29:00.710Z,3.88
2022-12-20T01:31:30.322Z,4.18
2022-12-20T01:33:58.590Z,4.03
2022-12-20T01:36:29.648Z,3.88
2022-12-20T01:38:59.345Z,3.88
2022-12-20T01:41:28.191Z,4.03
2022-12-20T01:43:58.579Z,3.75
2022-12-20T01:46:28.648Z,3.92
2022-12-20T01:48:59.370Z,3.15
2022-12-20T01:51:29.928Z,3.35
2022-12-20T01:54:06.303Z,3.55
2022-12-20T01:56:34.572Z,3.53
2022-12-20T01:59:02.439Z,3.58
2022-12-20T02:01:29.797Z,3.45
2022-12-20T02:03:57.878Z,3.30
2022-12-20T02:06:26.762Z,3.75
2022-12-20T02:08:58.741Z,3.28
2022-12-20T02:11:44.729Z,3.60
2022-12-20T02:14:32.534Z,3.13
2022-12-20T02:17:14.688Z,3.53
2022-12-20T02:20:00.074Z,3.15
2022-12-20T02:22:42.650Z,3.17
2022-12-20T02:25:20.525Z,2.92
2022-12-20T02:27:54.241Z,3.25
2022-12-20T02:30:26.928Z,3.28
2022-12-20T02:33:00.324Z,3.55
2022-12-20T02:35:35.424Z,3.40
2022-12-20T02:38:25.193Z,3.40
2022-12-20T02:40:58.350Z,2.88
2022-12-20T02:43:49.066Z,3.45
2022-12-20T02:46:19.727Z,3.08
2022-12-20T02:51:20.478Z,3.42
2022-12-20T02:53:47.981Z,3.13
2022-12-20T02:56:47.408Z,3.58
2022-12-20T02:59:21.428Z,2.75
2022-12-20T03:01:52.364Z,3.05
2022-12-20T03:04:23.688Z,3.33
2022-12-20T03:06:58.015Z,3.88
2022-12-20T03:09:25.368Z,3.80
2022-12-20T03:11:53.905Z,3.45
2022-12-20T03:14:21.524Z,3.60
2022-12-20T03:16:50.695Z,3.15
2022-12-20T03:19:18.456Z,3.42
2022-12-20T03:21:46.697Z,3.28
2022-12-20T03:24:14.838Z,3.78
2022-12-20T03:26:42.289Z,4.70
2022-12-20T03:29:10.371Z,3.70
2022-12-20T03:31:39.020Z,3.72
2022-12-20T03:34:06.582Z,3.80
2022-12-20T03:36:35.640Z,4.05
2022-12-20T03:39:06.317Z,3.72
2022-12-20T03:41:37.783Z,4.28
2022-12-20T03:44:06.315Z,3.80
2022-12-20T03:46:33.847Z,3.88
2022-12-20T03:49:01.263Z,4.00
2022-12-20T03:51:29.819Z,3.67
2022-12-20T03:53:57.609Z,3.67
2022-12-20T03:56:36.559Z,4.05
2022-12-20T03:59:04.895Z,4.18
2022-12-20T04:01:36.618Z,3.70
2022-12-20T04:04:05.482Z,3.97
2022-12-20T04:06:32.888Z,3.70
2022-12-20T04:09:00.716Z,3.80
2022-12-20T04:11:33.605Z,4.30
2022-12-20T04:14:06.910Z,4.20
2022-12-20T04:16:35.399Z,4.75
2022-12-20T04:19:03.056Z,4.75
2022-12-20T04:21:36.271Z,4.70
2022-12-20T04:24:05.773Z,4.63
2022-12-20T04:26:46.478Z,4.18
2022-12-20T04:29:15.850Z,4.38
2022-12-20T04:31:44.347Z,4.50
2022-12-20T04:34:14.484Z,4.70
2022-12-20T04:36:42.110Z,4.43
2022-12-20T04:39:15.665Z,4.47
2022-12-20T04:42:08.875Z,4.55
2022-12-20T04:44:36.294Z,4.15
2022-12-20T04:47:05.936Z,4.78
2022-12-20T04:49:33.243Z,4.65
2022-12-20T04:52:20.474Z,4.80
2022-12-20T04:54:48.658Z,5.03
2022-12-20T04:57:25.091Z,5.65
2022-12-20T04:59:53.054Z,4.97
2022-12-20T05:02:20.552Z,5.22
2022-12-20T05:04:51.986Z,4.78
2022-12-20T05:07:19.297Z,5.50
2022-12-20T05:09:51.868Z,4.55
2022-12-20T05:12:19.298Z,4.97
2022-12-20T05:14:46.675Z,5.22
2022-12-20T05:17:16.943Z,4.53
2022-12-20T05:19:45.078Z,4.78
2022-12-20T05:22:36.355Z,4.97
2022-12-20T05:25:29.568Z,5.18
2022-12-20T05:28:00.122Z,4.85
2022-12-20T05:32:58.375Z,4.63
2022-12-20T05:35:26.280Z,4.20
2022-12-20T05:38:02.536Z,4.85
2022-12-20T05:40:29.945Z,4.50
2022-12-20T05:42:57.421Z,4.28
2022-12-20T05:45:33.785Z,5.07
2022-12-20T05:48:05.940Z,4.63
2022-12-20T05:50:37.680Z,4.15
2022-12-20T05:53:28.852Z,4.75
2022-12-20T05:55:59.739Z,4.30
2022-12-20T05:58:31.409Z,4.88
2022-12-20T06:01:07.397Z,4.00
2022-12-20T06:03:40.691Z,4.20
2022-12-20T06:06:15.085Z,4.43
2022-12-20T06:08:45.573Z,4.05
2022-12-20T06:11:21.987Z,3.83
2022-12-20T06:13:59.528Z,4.45
2022-12-20T06:16:27.479Z,4.20
2022-12-20T06:18:57.204Z,4.07
2022-12-20T06:21:24.521Z,3.53
2022-12-20T06:23:54.260Z,3.92
2022-12-20T06:26:23.511Z,3.92
2022-12-20T06:28:52.671Z,3.78
2022-12-20T06:31:26.868Z,3.67
2022-12-20T06:33:55.375Z,4.38
2022-12-20T06:36:26.786Z,3.90
2022-12-20T06:38:56.084Z,4.15
2022-12-20T06:41:23.380Z,3.58
2022-12-20T06:43:52.208Z,3.78
2022-12-20T06:46:20.282Z,3.72
2022-12-20T06:48:48.352Z,3.28
2022-12-20T06:51:17.491Z,3.80
2022-12-20T06:53:44.972Z,4.15
2022-12-20T06:56:14.383Z,3.85
2022-12-20T06:58:41.744Z,4.13
2022-12-20T07:01:09.291Z,4.05
2022-12-20T07:03:36.823Z,3.80
2022-12-20T07:06:05.621Z,3.63
2022-12-20T07:08:33.034Z,3.65
2022-12-20T07:11:06.654Z,3.58
2022-12-20T07:13:34.879Z,3.40
2022-12-20T07:16:04.040Z,3.65
2022-12-20T07:18:31.682Z,3.83
2022-12-20T07:21:01.348Z,3.88
2022-12-20T07:23:29.372Z,3.78
2022-12-20T07:25:58.936Z,3.80
2022-12-20T07:28:27.376Z,4.00
2022-12-20T07:30:55.253Z,3.85
2022-12-20T07:33:22.626Z,4.65
2022-12-20T07:35:54.461Z,4.18
2022-12-20T07:38:22.634Z,4.70
2022-12-20T07:40:49.898Z,5.35
2022-12-20T07:43:17.259Z,4.68
2022-12-20T07:45:44.505Z,5.20
2022-12-20T07:48:16.306Z,5.13
2022-12-20T07:50:47.500Z,6.18
2022-12-20T07:53:17.862Z,5.75
2022-12-20T07:55:45.100Z,6.10
2022-12-20T07:58:13.798Z,5.93
2022-12-20T08:00:41.340Z,5.50
2022-12-20T08:03:24.365Z,5.45
2022-12-20T08:05:56.438Z,5.90
2022-12-20T08:08:27.149Z,5.97
2022-12-20T08:13:23.240Z,6.18
2022-12-20T08:15:50.810Z,6.13
2022-12-20T08:18:18.103Z,6.88
2022-12-20T08:20:45.349Z,7.03
2022-12-20T08:23:12.658Z,6.72
2022-12-20T08:25:42.149Z,7.30
2022-12-20T08:28:09.544Z,34.05
2022-12-20T08:30:37.352Z,7.97
2022-12-20T08:33:07.087Z,24.65
2022-12-20T08:35:34.542Z,6.60
2022-12-20T08:38:01.804Z,16.67
2022-12-20T08:40:30.072Z,5.78
2022-12-20T08:42:58.836Z,6.63
2022-12-20T08:45:26.083Z,6.90
2022-12-20T08:47:53.906Z,6.10
2022-12-20T08:50:21.215Z,6.45
2022-12-20T08:52:48.606Z,6.45
2022-12-20T08:55:16.103Z,5.78
2022-12-20T08:57:43.468Z,6.28
2022-12-20T09:00:11.550Z,6.03
2022-12-20T09:02:41.037Z,5.97
2022-12-20T09:05:08.901Z,5.95
2022-12-20T09:07:36.290Z,5.60
2022-12-20T09:10:03.769Z,5.20
2022-12-20T09:12:31.106Z,5.78
2022-12-20T09:14:58.354Z,5.13
2022-12-20T09:17:25.684Z,4.80
2022-12-20T09:19:53.742Z,5.38
2022-12-20T09:22:21.431Z,5.28
2022-12-20T09:24:49.341Z,6.35
2022-12-20T09:27:16.659Z,5.10
2022-12-20T09:29:43.933Z,4.60
2022-12-20T09:32:11.183Z,4.45
2022-12-20T09:34:39.501Z,4.28
2022-12-20T09:37:06.916Z,4.40
2022-12-20T09:39:34.291Z,4.63
2022-12-20T09:42:09.301Z,4.25
2022-12-20T09:44:40.372Z,4.55
2022-12-20T09:47:21.363Z,3.70
2022-12-20T09:49:54.181Z,3.60
2022-12-20T09:52:49.709Z,4.50
2022-12-20T09:55:34.667Z,3.85
2022-12-20T09:58:25.343Z,3.70
2022-12-20T10:00:54.514Z,3.38
2022-12-20T10:03:26.638Z,3.85
2022-12-20T10:06:00.519Z,4.47
2022-12-20T10:08:56.592Z,4.22
2022-12-20T10:12:19.630Z,3.85
2022-12-20T10:15:02.097Z,3.67
2022-12-20T10:17:57.387Z,3.95
2022-12-20T10:20:37.254Z,3.50
2022-12-20T10:23:43.286Z,3.10
2022-12-20T10:26:12.688Z,3.13
2022-12-20T10:28:41.164Z,2.92
2022-12-20T10:31:14.549Z,3.20
2022-12-20T10:33:43.063Z,3.38
2022-12-20T10:36:20.261Z,3.03
2022-12-20T10:38:50.463Z,3.65
2022-12-20T10:41:22.973Z,3.30
2022-12-20T10:44:14.884Z,3.30
2022-12-20T10:46:48.333Z,2.70
2022-12-20T10:49:34.847Z,3.50
2022-12-20T10:52:08.740Z,3.08
2022-12-20T10:54:37.820Z,2.90
2022-12-20T10:57:24.947Z,3.15
2022-12-20T11:00:00.779Z,3.15
2022-12-20T11:02:40.717Z,2.70
2022-12-20T11:05:12.840Z,2.97
2022-12-20T11:11:23.086Z,3.10
2022-12-20T11:13:52.261Z,2.80
2022-12-20T11:16:24.406Z,3.42
2022-12-20T11:19:06.513Z,2.88
2022-12-20T11:21:58.315Z,3.42
2022-12-20T11:24:45.373Z,3.30
2022-12-20T11:27:31.283Z,3.05
2022-12-20T11:30:09.847Z,2.95
2022-12-20T11:32:59.133Z,2.72
2022-12-20T11:35:39.279Z,2.92
2022-12-20T11:38:18.226Z,3.10
2022-12-20T11:40:58.360Z,3.10
2022-12-20T11:43:48.085Z,3.38
2022-12-20T11:46:46.748Z,3.33
2022-12-20T11:49:33.851Z,3.42
2022-12-20T11:52:15.411Z,3.22
2022-12-20T11:54:47.750Z,3.50
2022-12-20T11:57:24.404Z,3.03
2022-12-20T11:59:57.879Z,3.70
2022-12-20T12:02:25.398Z,3.28
2022-12-20T12:05:04.146Z,3.67
2022-12-20T12:07:36.961Z,3.38
2022-12-20T12:10:22.542Z,3.90
2022-12-20T12:13:20.461Z,3.28
2022-12-20T12:15:59.833Z,3.30
2022-12-20T12:18:32.963Z,3.28
2022-12-20T12:21:26.543Z,4.13
2022-12-20T12:24:12.796Z,3.08
2022-12-20T12:26:41.166Z,3.50
2022-12-20T12:29:17.269Z,4.30
2022-12-20T12:31:49.909Z,3.88
2022-12-20T12:34:26.862Z,3.63
2022-12-20T12:37:32.500Z,3.78
2022-12-20T12:40:25.178Z,3.55
2022-12-20T12:43:13.926Z,3.30
2022-12-20T12:45:51.485Z,4.05
2022-12-20T12:48:24.573Z,3.75
2022-12-20T12:50:56.575Z,3.75
2022-12-20T12:53:36.841Z,3.60
2022-12-20T12:56:42.691Z,4.68
2022-12-20T12:59:20.942Z,4.07
2022-12-20T13:02:06.853Z,3.78
2022-12-20T13:04:58.863Z,4.05
2022-12-20T13:07:32.597Z,4.05
2022-12-20T13:10:29.512Z,4.20
2022-12-20T13:12:59.713Z,4.05
2022-12-20T13:15:27.493Z,3.63
2022-12-20T13:17:58.092Z,4.03
2022-12-20T13:23:12.773Z,4.18
2022-12-20T13:25:54.522Z,4.28
2022-12-20T13:28:24.702Z,4.20
2022-12-20T13:31:01.340Z,5.10
2022-12-20T13:33:42.552Z,4.55
2022-12-20T13:36:09.817Z,5.05
2022-12-20T13:38:43.252Z,4.88
2022-12-20T13:41:34.508Z,4.72
2022-12-20T13:44:14.704Z,4.53
2022-12-20T13:46:58.552Z,4.20
2022-12-20T13:49:28.836Z,4.15
2022-12-20T13:52:19.930Z,4.93
2022-12-20T13:54:52.454Z,5.03
2022-12-20T13:57:31.432Z,4.93
2022-12-20T14:00:07.131Z,4.80
2022-12-20T14:02:41.976Z,6.10
2022-12-20T14:05:26.833Z,5.57
2022-12-20T14:08:02.661Z,5.53
2022-12-20T14:10:32.724Z,5.97
2022-12-20T14:13:00.571Z,5.82
2022-12-20T14:15:29.508Z,5.78
2022-12-20T14:17:57.443Z,5.63
2022-12-20T14:20:36.498Z,6.25
2022-12-20T14:23:16.165Z,5.88
2022-12-20T14:25:52.848Z,6.53
2022-12-20T14:28:27.396Z,7.50
2022-12-20T14:30:56.812Z,6.28
2022-12-20T14:33:44.901Z,7.35
2022-12-20T14:36:20.604Z,6.90
2022-12-20T14:38:50.086Z,7.45
2022-12-20T14:41:55.301Z,6.85
2022-12-20T14:44:24.448Z,7.65
2022-12-20T14:46:57.751Z,8.13
2022-12-20T14:49:30.431Z,7.80
2022-12-20T14:52:18.184Z,7.88
2022-12-20T14:55:11.672Z,8.70
2022-12-20T14:57:45.817Z,8.98
2022-12-20T15:00:16.149Z,8.25
2022-12-20T15:03:03.253Z,9.95
2022-12-20T15:05:34.135Z,9.55
2022-12-20T15:10:38.068Z,9.13
2022-12-20T15:13:09.530Z,10.82
2022-12-20T15:15:37.312Z,11.02
2022-12-20T15:18:13.586Z,11.68
2022-12-20T15:20:43.324Z,11.25
2022-12-20T15:23:15.908Z,11.60
2022-12-20T15:25:45.328Z,11.98
2022-12-20T15:28:22.052Z,12.25
2022-12-20T15:30:51.524Z,13.57
2022-12-20T15:33:26.256Z,13.13
2022-12-20T15:35:53.874Z,13.10
2022-12-20T15:38:40.573Z,13.95
2022-12-20T15:41:25.082Z,13.18
2022-12-20T15:43:58.087Z,14.48
2022-12-20T15:46:26.881Z,14.48
2022-12-20T15:48:55.203Z,15.88
2022-12-20T15:51:28.706Z,15.23
2022-12-20T15:53:56.573Z,15.57
2022-12-20T15:56:26.645Z,16.35
2022-12-20T15:58:54.429Z,17.98
2022-12-20T16:01:26.154Z,16.85
2022-12-20T16:03:53.609Z,15.52
2022-12-20T16:06:21.367Z,16.65
2022-12-20T16:08:49.259Z,16.33
2022-12-20T16:11:27.811Z,18.13
2022-12-20T16:13:56.690Z,18.77
2022-12-20T16:16:27.308Z,18.50
2022-12-20T16:21:24.363Z,18.13
2022-12-20T16:23:52.454Z,19.08
2022-12-20T16:26:23.476Z,18.90
2022-12-20T16:28:53.518Z,18.65
2022-12-20T16:31:43.475Z,18.55
2022-12-20T16:34:16.086Z,20.63
2022-12-20T16:36:44.322Z,19.63
2022-12-20T16:39:14.529Z,21.52
2022-12-20T16:41:43.710Z,21.08
2022-12-20T16:44:16.039Z,21.50
2022-12-20T16:46:43.912Z,22.50
2022-12-20T16:49:19.699Z,22.05
2022-12-20T16:51:49.049Z,23.08
2022-12-20T16:54:20.897Z,23.80
2022-12-20T16:56:57.517Z,24.67
2022-12-20T16:59:25.649Z,23.15
2022-12-20T17:01:56.618Z,25.38
2022-12-20T17:04:25.040Z,25.20
2022-12-20T17:06:52.356Z,25.25
2022-12-20T17:09:20.573Z,27.02
2022-12-20T17:11:50.214Z,27.75
2022-12-20T17:14:20.006Z,28.63
2022-12-20T17:16:47.731Z,26.00
2022-12-20T17:19:15.031Z,28.52
2022-12-20T17:24:30.591Z,27.42
2022-12-20T17:26:58.138Z,28.08
2022-12-20T17:29:25.604Z,30.60
2022-12-20T17:31:52.916Z,35.13
2022-12-20T17:34:26.228Z,32.30
2022-12-20T17:36:55.668Z,33.38
2022-12-20T17:39:24.222Z,31.42
2022-12-20T17:41:53.080Z,33.22
2022-12-20T17:44:23.853Z,34.15
2022-12-20T17:49:18.975Z,32.67
2022-12-20T17:51:46.967Z,34.28
2022-12-20T17:54:18.815Z,32.83
2022-12-20T17:56:46.566Z,32.13
2022-12-20T17:59:14.743Z,32.47
2022-12-20T18:01:43.292Z,33.10
2022-12-20T18:04:14.488Z,36.40
2022-12-20T18:06:44.891Z,32.80
2022-12-20T18:09:20.113Z,32.40
2022-12-20T18:11:47.553Z,35.72
2022-12-20T18:14:15.817Z,29.63
2022-12-20T18:16:43.755Z,37.40
2022-12-20T18:19:17.228Z,34.72
2022-12-20T18:21:45.169Z,39.30
2022-12-20T18:24:14.711Z,42.40
2022-12-20T18:26:44.913Z,42.47
2022-12-20T18:29:12.361Z,41.28
2022-12-20T18:31:39.968Z,41.22
2022-12-20T18:34:07.439Z,42.10
2022-12-20T18:36:36.918Z,42.30
2022-12-20T18:39:06.642Z,44.22
2022-12-20T18:41:34.933Z,41.90
2022-12-20T18:44:05.874Z,44.28
2022-12-20T18:46:33.878Z,33.38
2022-12-20T18:49:01.808Z,19.70
2022-12-20T18:51:31.753Z,18.23
2022-12-20T18:54:00.097Z,18.52
2022-12-20T18:56:30.902Z,17.90
2022-12-20T18:59:04.645Z,16.35
2022-12-20T19:01:38.482Z,19.02
2022-12-20T19:04:07.714Z,16.40
2022-12-20T19:06:37.026Z,22.50
2022-12-20T19:09:09.072Z,19.70
2022-12-20T19:11:36.648Z,18.13
2022-12-20T19:14:04.401Z,19.73
2022-12-20T19:16:32.797Z,20.90
2022-12-20T19:19:01.917Z,19.05
2022-12-20T19:21:31.751Z,21.15
2022-12-20T19:24:02.329Z,25.80
2022-12-20T19:26:29.991Z,26.30
2022-12-20T19:28:57.796Z,24.23
2022-12-20T19:31:27.663Z,24.50
2022-12-20T19:33:58.099Z,24.92
2022-12-20T19:36:30.858Z,22.15
2022-12-20T19:39:00.595Z,23.58
2022-12-20T19:41:30.723Z,22.73
2022-12-20T19:43:58.555Z,22.58
2022-12-20T19:46:29.345Z,24.33
2022-12-20T19:48:59.131Z,26.10
2022-12-20T19:51:28.350Z,23.77
2022-12-20T19:53:57.981Z,26.20
2022-12-20T19:56:28.146Z,27.83
2022-12-20T19:58:56.331Z,24.45
2022-12-20T20:01:26.970Z,26.48
2022-12-20T20:06:25.840Z,26.30
2022-12-20T20:08:53.553Z,26.75
2022-12-20T20:11:21.234Z,28.08
2022-12-20T20:13:48.762Z,26.98
2022-12-20T20:16:21.784Z,29.13
2022-12-20T20:18:50.221Z,29.27
2022-12-20T20:21:21.617Z,29.73
2022-12-20T20:23:54.152Z,29.70
2022-12-20T20:26:24.697Z,27.55
2022-12-20T20:28:52.856Z,30.08
2022-12-20T20:31:20.794Z,30.48
2022-12-20T20:33:48.673Z,30.73
2022-12-20T20:36:18.884Z,27.55
2022-12-20T20:38:46.426Z,29.45
2022-12-20T20:41:14.463Z,27.80
2022-12-20T20:43:42.896Z,28.33
2022-12-20T20:46:13.671Z,28.50
2022-12-20T20:51:09.754Z,27.30
2022-12-20T20:53:37.642Z,28.48
2022-12-20T20:56:06.330Z,27.50
2022-12-20T20:58:34.650Z,29.35
2022-12-20T21:01:04.927Z,26.85
2022-12-20T21:03:32.833Z,23.85
2022-12-20T21:08:49.131Z,27.63
2022-12-20T21:11:16.738Z,27.67
2022-12-20T21:13:44.107Z,28.13
2022-12-20T21:16:14.963Z,26.83
2022-12-20T21:18:42.348Z,27.25
2022-12-20T21:21:11.566Z,25.80
2022-12-20T21:23:43.244Z,27.83
2022-12-20T21:26:12.857Z,27.77
2022-12-20T21:28:43.905Z,27.48
2022-12-20T21:31:19.536Z,27.17
2022-12-20T21:33:47.192Z,24.35
2022-12-20T21:36:16.828Z,26.20
2022-12-20T21:38:51.457Z,24.65
2022-12-20T21:41:23.259Z,24.98
2022-12-20T21:43:52.074Z,25.42
2022-12-20T21:46:19.459Z,23.95
2022-12-20T21:48:47.191Z,29.30
2022-12-20T21:51:18.148Z,28.60
2022-12-20T21:53:48.464Z,30.05
2022-12-20T21:56:16.871Z,25.40
2022-12-20T21:58:44.935Z,27.77
2022-12-20T22:01:16.698Z,29.83
2022-12-20T22:03:44.790Z,28.75
2022-12-20T22:06:12.593Z,32.13
2022-12-20T22:08:40.284Z,32.28
2022-12-20T22:11:10.724Z,31.42
2022-12-20T22:13:41.609Z,34.80
2022-12-20T22:16:10.716Z,31.70
2022-12-20T22:18:38.358Z,32.08
2022-12-20T22:21:10.752Z,34.15
2022-12-20T22:23:39.086Z,29.08
2022-12-20T22:26:09.608Z,29.38
2022-12-20T22:28:38.160Z,32.47
2022-12-20T22:31:10.502Z,34.58
2022-12-20T22:33:38.664Z,32.63
2022-12-20T22:36:07.822Z,31.17
2022-12-20T22:38:35.672Z,30.63
2022-12-20T22:41:30.473Z,36.45
2022-12-20T22:43:59.540Z,33.90
2022-12-20T22:46:29.481Z,29.90
2022-12-20T22:48:58.506Z,22.50
2022-12-20T22:51:27.381Z,28.25
2022-12-20T22:56:27.518Z,29.35
2022-12-20T22:58:55.059Z,27.15
2022-12-20T23:01:25.057Z,34.08
2022-12-20T23:03:52.693Z,29.90
2022-12-20T23:06:21.056Z,27.45
2022-12-20T23:08:48.821Z,32.63
2022-12-20T23:11:43.904Z,28.23
2022-12-20T23:14:35.206Z,27.50
2022-12-20T23:17:04.537Z,29.77
2022-12-20T23:19:52.226Z,27.67
2022-12-20T23:22:39.387Z,29.55
2022-12-20T23:25:10.282Z,33.13
2022-12-20T23:27:39.107Z,35.40
2022-12-20T23:30:09.141Z,35.80
2022-12-20T23:32:36.558Z,27.92
2022-12-20T23:35:10.005Z,33.75
2022-12-20T23:37:39.950Z,37.42
2022-12-20T23:40:08.475Z,35.28
2022-12-20T23:42:35.767Z,42.83
2022-12-20T23:45:03.514Z,39.15
2022-12-20T23:47:31.950Z,52.20
2022-12-20T23:49:59.241Z,50.05
2022-12-20T23:52:26.730Z,37.47
2022-12-20T23:54:54.082Z,41.88
2022-12-20T23:57:21.256Z,38.65
2022-12-20T23:59:48.597Z,48.78
